Hovedside
METAR-TAF:

METAR-TAF

Lufthavner :

Salinas, Ecuador

breddegrad: 02-12-18S, lengdegrad: 080-59-20W, høyde over havet: 5 m

Gjeldene værobservasjon

Denne rapporten ble laget for 50 minutter siden, klokken 20:00 UTC
Vind 7 kt fra Sørvest
Temperatur 29°C
Luftfuktighet 70%
Trykk 1008 hPa
Sikt 10 km eller mer
ingen skyer under 1500 m og ingen bygeskyer

METAR: SESA 122000Z 22007KT CAVOK 29/23 Q1008 RMK A2977

Tid: 15:50 (20:50 UTC)


TAF: fraværende

Værobservasjoner og værvarsel for over 4000 flyplasser (METAR- og TAF-rapporter).

Tilgjengelige stasjoner er representert av de røde og gule prikkene på kartet.

Hold musepekeren over prikken for å se navnet på stasjonen.

Klikk så for å se værobservasjoner og -varsler.

For å forandre kartet kan du klikke på den grønne knappen med svart kryss for å zoome inn, på den grønne knappen med strek for å zoome ut, eller på de grønne pilene for å se tilstøtende kart.


METAR-TAF: